sensor_id;sensor_type;location;lat;lon;timestamp;pressure;altitude;pressure_sealevel;temperature;humidity
64844;BME280;51310;52.198;5.422;2023-08-06T00:00:28;100316.03;;;14.45;88.40
64844;BME280;51310;52.198;5.422;2023-08-06T00:02:54;100316.91;;;14.46;88.39
64844;BME280;51310;52.198;5.422;2023-08-06T00:05:20;100311.47;;;14.36;88.48
64844;BME280;51310;52.198;5.422;2023-08-06T00:07:49;100320.84;;;14.42;88.55
64844;BME280;51310;52.198;5.422;2023-08-06T00:10:17;100313.75;;;14.41;88.42
64844;BME280;51310;52.198;5.422;2023-08-06T00:12:44;100319.59;;;14.46;88.61
64844;BME280;51310;52.198;5.422;2023-08-06T00:15:11;100296.47;;;14.33;88.35
64844;BME280;51310;52.198;5.422;2023-08-06T00:17:37;100287.97;;;14.28;88.41
64844;BME280;51310;52.198;5.422;2023-08-06T00:20:05;100306.41;;;14.43;88.51
64844;BME280;51310;52.198;5.422;2023-08-06T00:22:38;100296.75;;;14.30;88.39
64844;BME280;51310;52.198;5.422;2023-08-06T00:25:05;100286.81;;;14.21;88.49
64844;BME280;51310;52.198;5.422;2023-08-06T00:27:31;100311.63;;;14.34;88.46
64844;BME280;51310;52.198;5.422;2023-08-06T00:29:58;100273.06;;;14.14;88.32
64844;BME280;51310;52.198;5.422;2023-08-06T00:32:24;100288.25;;;14.25;88.47
64844;BME280;51310;52.198;5.422;2023-08-06T00:34:50;100296.03;;;14.28;88.43
64844;BME280;51310;52.198;5.422;2023-08-06T00:37:19;100308.94;;;14.34;88.51
64844;BME280;51310;52.198;5.422;2023-08-06T00:39:45;100280.03;;;14.27;88.38
64844;BME280;51310;52.198;5.422;2023-08-06T00:42:11;100303.28;;;14.37;88.43
64844;BME280;51310;52.198;5.422;2023-08-06T00:44:38;100302.03;;;14.42;88.49
64844;BME280;51310;52.198;5.422;2023-08-06T00:47:07;100308.66;;;14.37;88.44
64844;BME280;51310;52.198;5.422;2023-08-06T00:49:35;100308.66;;;14.37;88.35
64844;BME280;51310;52.198;5.422;2023-08-06T00:52:04;100297.47;;;14.32;88.39
64844;BME280;51310;52.198;5.422;2023-08-06T00:54:34;100307.53;;;14.40;88.43
64844;BME280;51310;52.198;5.422;2023-08-06T00:57:02;100310.34;;;14.38;88.44
64844;BME280;51310;52.198;5.422;2023-08-06T00:59:31;100305.97;;;14.37;88.58
64844;BME280;51310;52.198;5.422;2023-08-06T01:01:57;100277.75;;;14.22;88.49
64844;BME280;51310;52.198;5.422;2023-08-06T01:04:24;100307.97;;;14.45;88.50
64844;BME280;51310;52.198;5.422;2023-08-06T01:14:45;100306.56;;;14.41;88.51
64844;BME280;51310;52.198;5.422;2023-08-06T01:17:18;100299.91;;;14.45;88.36
64844;BME280;51310;52.198;5.422;2023-08-06T01:19:45;100288.28;;;14.35;88.39
64844;BME280;51310;52.198;5.422;2023-08-06T01:22:11;100302.19;;;14.50;88.42
64844;BME280;51310;52.198;5.422;2023-08-06T01:24:37;100302.06;;;14.51;88.40
64844;BME280;51310;52.198;5.422;2023-08-06T01:27:22;100302.69;;;14.55;88.41
64844;BME280;51310;52.198;5.422;2023-08-06T01:30:10;100302.16;;;14.40;88.41
64844;BME280;51310;52.198;5.422;2023-08-06T01:32:44;100297.47;;;14.32;88.53
64844;BME280;51310;52.198;5.422;2023-08-06T01:35:16;100303.81;;;14.31;88.50
64844;BME280;51310;52.198;5.422;2023-08-06T01:37:46;100295.13;;;14.18;88.51
64844;BME280;51310;52.198;5.422;2023-08-06T01:40:13;100308.16;;;14.23;88.51
64844;BME280;51310;52.198;5.422;2023-08-06T01:42:40;100304.63;;;14.22;88.82
64844;BME280;51310;52.198;5.422;2023-08-06T01:45:08;100304.06;;;14.19;88.76
64844;BME280;51310;52.198;5.422;2023-08-06T01:47:35;100302.22;;;14.19;88.86
64844;BME280;51310;52.198;5.422;2023-08-06T01:50:02;100306.19;;;14.25;88.83
64844;BME280;51310;52.198;5.422;2023-08-06T01:52:28;100306.34;;;14.23;88.95
64844;BME280;51310;52.198;5.422;2023-08-06T01:54:55;100290.41;;;14.10;88.75
64844;BME280;51310;52.198;5.422;2023-08-06T01:57:21;100306.34;;;14.23;88.90
64844;BME280;51310;52.198;5.422;2023-08-06T01:59:47;100313.41;;;14.24;88.74
64844;BME280;51310;52.198;5.422;2023-08-06T02:02:12;100298.41;;;14.22;88.82
64844;BME280;51310;52.198;5.422;2023-08-06T02:04:38;100288.25;;;14.25;88.73
64844;BME280;51310;52.198;5.422;2023-08-06T02:07:04;100309.91;;;14.33;88.92
64844;BME280;51310;52.198;5.422;2023-08-06T02:09:31;100311.47;;;14.36;88.66
64844;BME280;51310;52.198;5.422;2023-08-06T02:11:56;100295.00;;;14.20;88.76
64844;BME280;51310;52.198;5.422;2023-08-06T02:14:22;100309.38;;;14.40;88.69
64844;BME280;51310;52.198;5.422;2023-08-06T02:16:48;100308.66;;;14.37;88.62
64844;BME280;51310;52.198;5.422;2023-08-06T02:19:15;100310.34;;;14.38;88.70
64844;BME280;51310;52.198;5.422;2023-08-06T02:21:41;100304.00;;;14.40;88.74
64844;BME280;51310;52.198;5.422;2023-08-06T02:24:07;100303.88;;;14.41;88.68
64844;BME280;51310;52.198;5.422;2023-08-06T02:26:33;100288.25;;;14.25;88.57
64844;BME280;51310;52.198;5.422;2023-08-06T02:28:59;100296.78;;;14.40;88.69
64844;BME280;51310;52.198;5.422;2023-08-06T02:31:25;100303.00;;;14.41;88.80
64844;BME280;51310;52.198;5.422;2023-08-06T02:33:51;100295.09;;;14.39;88.63
64844;BME280;51310;52.198;5.422;2023-08-06T02:36:17;100287.44;;;14.34;88.73
64844;BME280;51310;52.198;5.422;2023-08-06T02:38:43;100299.91;;;14.45;88.76
64844;BME280;51310;52.198;5.422;2023-08-06T02:41:10;100304.31;;;14.46;88.65
64844;BME280;51310;52.198;5.422;2023-08-06T02:43:36;100282.88;;;14.25;88.81
64844;BME280;51310;52.198;5.422;2023-08-06T02:46:02;100283.56;;;14.27;88.90
64844;BME280;51310;52.198;5.422;2023-08-06T02:48:28;100296.22;;;14.36;88.96
64844;BME280;51310;52.198;5.422;2023-08-06T02:50:58;100281.28;;;14.23;89.05
64844;BME280;51310;52.198;5.422;2023-08-06T02:53:27;100299.88;;;14.35;89.12
64844;BME280;51310;52.198;5.422;2023-08-06T02:55:53;100298.00;;;14.26;89.13
64844;BME280;51310;52.198;5.422;2023-08-06T02:58:20;100296.03;;;14.28;89.29
64844;BME280;51310;52.198;5.422;2023-08-06T03:01:09;100276.59;;;14.15;89.25
64844;BME280;51310;52.198;5.422;2023-08-06T03:03:35;100292.50;;;14.28;89.41
64844;BME280;51310;52.198;5.422;2023-08-06T03:06:01;100292.34;;;14.29;89.32
64844;BME280;51310;52.198;5.422;2023-08-06T03:08:28;100292.19;;;14.21;89.39
64844;BME280;51310;52.198;5.422;2023-08-06T03:10:54;100297.69;;;14.20;89.28
64844;BME280;51310;52.198;5.422;2023-08-06T03:13:20;100290.53;;;14.09;89.31
64844;BME280;51310;52.198;5.422;2023-08-06T03:15:59;100290.09;;;14.04;89.27
64844;BME280;51310;52.198;5.422;2023-08-06T03:18:25;100285.97;;;14.00;89.15
64844;BME280;51310;52.198;5.422;2023-08-06T03:20:51;100288.25;;;14.04;89.17
64844;BME280;51310;52.198;5.422;2023-08-06T03:23:18;100283.03;;;14.03;89.37
64844;BME280;51310;52.198;5.422;2023-08-06T03:25:45;100262.59;;;13.90;89.39
64844;BME280;51310;52.198;5.422;2023-08-06T03:28:11;100292.06;;;14.02;89.60
64844;BME280;51310;52.198;5.422;2023-08-06T03:30:38;100281.91;;;14.05;89.53
64844;BME280;51310;52.198;5.422;2023-08-06T03:33:04;100284.31;;;14.08;89.69
64844;BME280;51310;52.198;5.422;2023-08-06T03:35:30;100289.28;;;14.13;89.69
64844;BME280;51310;52.198;5.422;2023-08-06T03:37:55;100283.31;;;14.09;89.95
64844;BME280;51310;52.198;5.422;2023-08-06T03:40:21;100289.56;;;14.10;89.92
64844;BME280;51310;52.198;5.422;2023-08-06T03:42:47;100269.72;;;14.01;90.04
64844;BME280;51310;52.198;5.422;2023-08-06T03:45:13;100285.66;;;14.14;90.17
64844;BME280;51310;52.198;5.422;2023-08-06T03:47:39;100280.63;;;14.09;90.10
64844;BME280;51310;52.198;5.422;2023-08-06T03:50:06;100289.03;;;14.16;90.06
64844;BME280;51310;52.198;5.422;2023-08-06T03:52:32;100292.59;;;14.16;90.15
64844;BME280;51310;52.198;5.422;2023-08-06T03:54:58;100284.06;;;14.11;90.18
64844;BME280;51310;52.198;5.422;2023-08-06T03:57:24;100293.56;;;14.15;90.37
64844;BME280;51310;52.198;5.422;2023-08-06T03:59:50;100290.75;;;14.17;90.39
64844;BME280;51310;52.198;5.422;2023-08-06T04:02:16;100292.59;;;14.16;90.34
64844;BME280;51310;52.198;5.422;2023-08-06T04:04:42;100291.63;;;14.27;90.29
64844;BME280;51310;52.198;5.422;2023-08-06T04:07:08;100267.81;;;14.13;90.49
64844;BME280;51310;52.198;5.422;2023-08-06T04:09:34;100289.22;;;14.24;90.51
64844;BME280;51310;52.198;5.422;2023-08-06T04:11:59;100277.03;;;14.20;90.50
64844;BME280;51310;52.198;5.422;2023-08-06T04:14:27;100287.53;;;14.23;90.43
64844;BME280;51310;52.198;5.422;2023-08-06T04:16:53;100283.97;;;14.23;90.45
64844;BME280;51310;52.198;5.422;2023-08-06T04:19:19;100287.78;;;14.20;90.54
64844;BME280;51310;52.198;5.422;2023-08-06T04:21:45;100289.66;;;14.29;90.38
64844;BME280;51310;52.198;5.422;2023-08-06T04:24:11;100294.63;;;14.34;90.45
64844;BME280;51310;52.198;5.422;2023-08-06T04:26:37;100299.16;;;14.33;90.46
64844;BME280;51310;52.198;5.422;2023-08-06T04:29:03;100314.56;;;14.31;90.38
64844;BME280;51310;52.198;5.422;2023-08-06T04:31:29;100274.91;;;14.14;90.50
64844;BME280;51310;52.198;5.422;2023-08-06T04:33:55;100301.81;;;14.24;90.48
64844;BME280;51310;52.198;5.422;2023-08-06T04:36:21;100306.78;;;14.28;90.39
64844;BME280;51310;52.198;5.422;2023-08-06T04:38:47;100308.03;;;14.24;90.49
64844;BME280;51310;52.198;5.422;2023-08-06T04:41:13;100310.75;;;14.34;90.50
64844;BME280;51310;52.198;5.422;2023-08-06T04:43:39;100309.19;;;14.31;90.51
64844;BME280;51310;52.198;5.422;2023-08-06T04:46:05;100313.41;;;14.24;90.36
64844;BME280;51310;52.198;5.422;2023-08-06T04:48:31;100323.75;;;14.29;90.58
64844;BME280;51310;52.198;5.422;2023-08-06T04:50:57;100303.34;;;14.16;90.50
64844;BME280;51310;52.198;5.422;2023-08-06T04:53:23;100321.78;;;14.31;90.49
64844;BME280;51310;52.198;5.422;2023-08-06T04:55:49;100297.00;;;14.27;90.46
64844;BME280;51310;52.198;5.422;2023-08-06T04:58:15;100314.34;;;14.44;90.55
64844;BME280;51310;52.198;5.422;2023-08-06T05:00:41;100318.72;;;14.45;90.41
64844;BME280;51310;52.198;5.422;2023-08-06T05:03:07;100322.44;;;14.44;90.59
64844;BME280;51310;52.198;5.422;2023-08-06T05:05:33;100316.69;;;14.58;90.45
64844;BME280;51310;52.198;5.422;2023-08-06T05:07:59;100300.22;;;14.52;90.41
64844;BME280;51310;52.198;5.422;2023-08-06T05:10:26;100326.81;;;14.66;90.17
64844;BME280;51310;52.198;5.422;2023-08-06T05:12:52;100326.66;;;14.68;90.26
64844;BME280;51310;52.198;5.422;2023-08-06T05:15:19;100301.22;;;14.51;90.15
64844;BME280;51310;52.198;5.422;2023-08-06T05:17:45;100330.78;;;14.72;90.23
64844;BME280;51310;52.198;5.422;2023-08-06T05:20:11;100315.03;;;14.67;90.08
64844;BME280;51310;52.198;5.422;2023-08-06T05:22:37;100320.44;;;14.77;90.00
64844;BME280;51310;52.198;5.422;2023-08-06T05:25:04;100317.91;;;14.75;89.98
64844;BME280;51310;52.198;5.422;2023-08-06T05:27:30;100345.69;;;14.86;89.77
64844;BME280;51310;52.198;5.422;2023-08-06T05:29:56;100354.16;;;14.81;89.72
64844;BME280;51310;52.198;5.422;2023-08-06T05:32:22;100334.06;;;14.75;89.46
64844;BME280;51310;52.198;5.422;2023-08-06T05:34:48;100345.97;;;14.83;89.54
64844;BME280;51310;52.198;5.422;2023-08-06T05:37:14;100325.25;;;14.73;89.45
64844;BME280;51310;52.198;5.422;2023-08-06T05:39:40;100356.19;;;14.89;89.31
64844;BME280;51310;52.198;5.422;2023-08-06T05:42:06;100339.16;;;14.78;89.16
64844;BME280;51310;52.198;5.422;2023-08-06T05:44:32;100342.56;;;14.81;89.14
64844;BME280;51310;52.198;5.422;2023-08-06T05:46:58;100347.91;;;14.71;89.15
64844;BME280;51310;52.198;5.422;2023-08-06T05:49:24;100348.31;;;14.66;89.19
64844;BME280;51310;52.198;5.422;2023-08-06T05:51:50;100361.78;;;14.76;89.26
64844;BME280;51310;52.198;5.422;2023-08-06T05:54:19;100369.16;;;14.84;89.04
64844;BME280;51310;52.198;5.422;2023-08-06T05:56:45;100350.31;;;14.74;88.87
64844;BME280;51310;52.198;5.422;2023-08-06T05:59:11;100372.34;;;14.89;88.97
64844;BME280;51310;52.198;5.422;2023-08-06T06:01:37;100358.81;;;14.79;88.88
64844;BME280;51310;52.198;5.422;2023-08-06T06:04:03;100382.25;;;14.88;88.95
64844;BME280;51310;52.198;5.422;2023-08-06T06:06:29;100377.16;;;14.95;88.95
64844;BME280;51310;52.198;5.422;2023-08-06T06:08:55;100384.56;;;15.03;88.79
64844;BME280;51310;52.198;5.422;2023-08-06T06:11:21;100385.94;;;14.97;88.79
64844;BME280;51310;52.198;5.422;2023-08-06T06:13:50;100393.00;;;14.88;88.73
64844;BME280;51310;52.198;5.422;2023-08-06T06:16:17;100385.06;;;14.87;88.54
64844;BME280;51310;52.198;5.422;2023-08-06T06:18:43;100373.16;;;14.80;88.69
64844;BME280;51310;52.198;5.422;2023-08-06T06:21:10;100396.69;;;14.97;88.58
64844;BME280;51310;52.198;5.422;2023-08-06T06:23:36;100403.22;;;14.94;88.55
64844;BME280;51310;52.198;5.422;2023-08-06T06:26:02;100383.91;;;14.80;88.37
64844;BME280;51310;52.198;5.422;2023-08-06T06:28:28;100401.22;;;14.96;88.33
64844;BME280;51310;52.198;5.422;2023-08-06T06:31:00;100405.50;;;14.99;88.47
64844;BME280;51310;52.198;5.422;2023-08-06T06:33:27;100408.91;;;15.01;88.44
64844;BME280;51310;52.198;5.422;2023-08-06T06:35:53;100394.09;;;14.86;88.40
64844;BME280;51310;52.198;5.422;2023-08-06T06:38:19;100404.06;;;14.95;88.34
64844;BME280;51310;52.198;5.422;2023-08-06T06:40:54;100406.28;;;14.80;88.27
64844;BME280;51310;52.198;5.422;2023-08-06T06:43:22;100415.06;;;14.82;88.53
64844;BME280;51310;52.198;5.422;2023-08-06T06:45:53;100407.41;;;14.77;88.56
64844;BME280;51310;52.198;5.422;2023-08-06T06:48:31;100405.97;;;14.73;88.36
64844;BME280;51310;52.198;5.422;2023-08-06T06:50:58;100411.47;;;14.72;88.51
64844;BME280;51310;52.198;5.422;2023-08-06T06:53:25;100433.22;;;14.90;88.53
64844;BME280;51310;52.198;5.422;2023-08-06T06:55:55;100432.16;;;15.02;88.36
64844;BME280;51310;52.198;5.422;2023-08-06T06:58:22;100397.38;;;14.89;88.58
64844;BME280;51310;52.198;5.422;2023-08-06T07:00:48;100403.22;;;14.94;88.34
64844;BME280;51310;52.198;5.422;2023-08-06T07:03:15;100406.81;;;15.05;88.29
64844;BME280;51310;52.198;5.422;2023-08-06T07:05:43;100400.56;;;15.04;88.28
64844;BME280;51310;52.198;5.422;2023-08-06T07:08:10;100433.63;;;15.26;88.20
64844;BME280;51310;52.198;5.422;2023-08-06T07:10:36;100407.81;;;15.13;88.00
64844;BME280;51310;52.198;5.422;2023-08-06T07:13:02;100433.22;;;15.30;87.94
64844;BME280;51310;52.198;5.422;2023-08-06T07:15:28;100427.13;;;15.28;87.55
64844;BME280;51310;52.198;5.422;2023-08-06T07:17:54;100405.25;;;15.12;87.35
64844;BME280;51310;52.198;5.422;2023-08-06T07:20:19;100424.84;;;15.24;87.14
64844;BME280;51310;52.198;5.422;2023-08-06T07:22:45;100420.91;;;15.28;87.41
64844;BME280;51310;52.198;5.422;2023-08-06T07:25:11;100424.72;;;15.35;87.19
64844;BME280;51310;52.198;5.422;2023-08-06T07:27:38;100440.03;;;15.34;87.06
64844;BME280;51310;52.198;5.422;2023-08-06T07:30:04;100438.06;;;15.36;87.08
64844;BME280;51310;52.198;5.422;2023-08-06T07:32:31;100428.44;;;15.34;87.05
64844;BME280;51310;52.198;5.422;2023-08-06T07:34:57;100444.19;;;15.48;86.99
64844;BME280;51310;52.198;5.422;2023-08-06T07:37:28;100441.06;;;15.53;86.56
64844;BME280;51310;52.198;5.422;2023-08-06T07:39:55;100448.75;;;15.57;86.50
64844;BME280;51310;52.198;5.422;2023-08-06T07:42:22;100432.28;;;15.51;86.41
64844;BME280;51310;52.198;5.422;2023-08-06T07:44:56;100453.28;;;15.67;85.92
64844;BME280;51310;52.198;5.422;2023-08-06T07:47:24;100450.47;;;15.68;85.82
64844;BME280;51310;52.198;5.422;2023-08-06T07:49:50;100435.97;;;15.59;85.61
64844;BME280;51310;52.198;5.422;2023-08-06T07:52:16;100438.97;;;15.56;85.18
64844;BME280;51310;52.198;5.422;2023-08-06T07:54:42;100451.31;;;15.59;84.92
64844;BME280;51310;52.198;5.422;2023-08-06T07:57:08;100454.75;;;15.71;85.23
64844;BME280;51310;52.198;5.422;2023-08-06T07:59:34;100448.78;;;15.67;84.97
64844;BME280;51310;52.198;5.422;2023-08-06T08:02:00;100449.94;;;15.84;84.78
64844;BME280;51310;52.198;5.422;2023-08-06T08:04:26;100452.34;;;15.87;84.52
64844;BME280;51310;52.198;5.422;2023-08-06T08:06:52;100440.53;;;15.69;84.40
64844;BME280;51310;52.198;5.422;2023-08-06T08:09:18;100449.78;;;15.76;84.20
64844;BME280;51310;52.198;5.422;2023-08-06T08:11:44;100463.56;;;15.73;84.26
64844;BME280;51310;52.198;5.422;2023-08-06T08:14:10;100446.84;;;15.79;84.40
64844;BME280;51310;52.198;5.422;2023-08-06T08:16:37;100463.00;;;15.79;84.30
64844;BME280;51310;52.198;5.422;2023-08-06T08:19:02;100457.59;;;15.79;84.27
64844;BME280;51310;52.198;5.422;2023-08-06T08:21:29;100460.84;;;15.73;84.44
64844;BME280;51310;52.198;5.422;2023-08-06T08:23:55;100455.19;;;15.76;84.52
64844;BME280;51310;52.198;5.422;2023-08-06T08:26:21;100461.88;;;15.81;84.90
64844;BME280;51310;52.198;5.422;2023-08-06T08:28:47;100461.03;;;15.81;85.13
64844;BME280;51310;52.198;5.422;2023-08-06T08:31:13;100461.03;;;15.91;84.51
64844;BME280;51310;52.198;5.422;2023-08-06T08:33:39;100469.09;;;15.81;84.27
64844;BME280;51310;52.198;5.422;2023-08-06T08:36:05;100466.66;;;15.78;84.41
64844;BME280;51310;52.198;5.422;2023-08-06T08:38:31;100466.19;;;15.63;84.52
64844;BME280;51310;52.198;5.422;2023-08-06T08:40:57;100462.59;;;15.33;84.58
64844;BME280;51310;52.198;5.422;2023-08-06T08:43:24;100480.03;;;15.08;85.35
64844;BME280;51310;52.198;5.422;2023-08-06T08:45:51;100471.94;;;14.77;86.00
64844;BME280;51310;52.198;5.422;2023-08-06T08:48:24;100466.81;;;14.53;86.74
64844;BME280;51310;52.198;5.422;2023-08-06T08:50:53;100472.31;;;14.52;87.00
64844;BME280;51310;52.198;5.422;2023-08-06T08:53:19;100459.47;;;14.34;87.44
64844;BME280;51310;52.198;5.422;2023-08-06T08:55:48;100480.53;;;14.50;87.83
64844;BME280;51310;52.198;5.422;2023-08-06T08:58:15;100463.47;;;14.40;87.86
64844;BME280;51310;52.198;5.422;2023-08-06T09:00:46;100490.38;;;14.61;87.98
64844;BME280;51310;52.198;5.422;2023-08-06T09:03:16;100504.22;;;14.56;87.96
64844;BME280;51310;52.198;5.422;2023-08-06T09:05:44;100497.78;;;14.48;87.95
64844;BME280;51310;52.198;5.422;2023-08-06T09:08:14;100502.53;;;14.44;87.82
64844;BME280;51310;52.198;5.422;2023-08-06T09:10:43;100504.13;;;14.47;87.80
64844;BME280;51310;52.198;5.422;2023-08-06T09:13:10;100508.00;;;14.54;87.69
64844;BME280;51310;52.198;5.422;2023-08-06T09:15:38;100505.63;;;14.40;87.55
64844;BME280;51310;52.198;5.422;2023-08-06T09:18:10;100484.44;;;14.25;87.85
64844;BME280;51310;52.198;5.422;2023-08-06T09:20:38;100509.03;;;14.42;88.05
64844;BME280;51310;52.198;5.422;2023-08-06T09:23:09;100498.13;;;14.22;88.03
64844;BME280;51310;52.198;5.422;2023-08-06T09:25:38;100513.63;;;14.30;88.23
64844;BME280;51310;52.198;5.422;2023-08-06T09:28:07;100530.22;;;14.35;88.31
64844;BME280;51310;52.198;5.422;2023-08-06T09:30:38;100533.34;;;14.40;88.47
64844;BME280;51310;52.198;5.422;2023-08-06T09:33:08;100509.13;;;14.19;88.25
64844;BME280;51310;52.198;5.422;2023-08-06T09:35:39;100538.91;;;14.27;88.35
64844;BME280;51310;52.198;5.422;2023-08-06T09:38:07;100534.91;;;14.22;88.25
64844;BME280;51310;52.198;5.422;2023-08-06T09:40:36;100535.75;;;14.22;88.26
64844;BME280;51310;52.198;5.422;2023-08-06T09:43:03;100532.09;;;14.23;88.49
64844;BME280;51310;52.198;5.422;2023-08-06T09:45:33;100515.09;;;14.23;88.79
64844;BME280;51310;52.198;5.422;2023-08-06T09:48:04;100531.78;;;14.37;88.68
64844;BME280;51310;52.198;5.422;2023-08-06T09:50:34;100535.31;;;14.38;88.54
64844;BME280;51310;52.198;5.422;2023-08-06T09:53:06;100506.63;;;14.27;88.82
64844;BME280;51310;52.198;5.422;2023-08-06T09:55:34;100529.81;;;14.40;88.76
64844;BME280;51310;52.198;5.422;2023-08-06T09:58:00;100544.44;;;14.47;88.81
64844;BME280;51310;52.198;5.422;2023-08-06T10:00:27;100517.50;;;14.37;88.75
64844;BME280;51310;52.198;5.422;2023-08-06T10:02:54;100542.94;;;14.54;88.71
64844;BME280;51310;52.198;5.422;2023-08-06T10:05:24;100527.47;;;14.46;88.95
64844;BME280;51310;52.198;5.422;2023-08-06T10:07:52;100528.59;;;14.44;88.81
64844;BME280;51310;52.198;5.422;2023-08-06T10:10:18;100548.84;;;14.59;89.04
64844;BME280;51310;52.198;5.422;2023-08-06T10:12:50;100559.84;;;14.56;89.10
64844;BME280;51310;52.198;5.422;2023-08-06T10:15:26;100558.16;;;14.55;89.11
64844;BME280;51310;52.198;5.422;2023-08-06T10:17:56;100564.97;;;14.59;89.32
64844;BME280;51310;52.198;5.422;2023-08-06T10:20:25;100561.91;;;14.64;89.40
64844;BME280;51310;52.198;5.422;2023-08-06T10:23:06;100556.63;;;14.62;89.31
64844;BME280;51310;52.198;5.422;2023-08-06T10:25:41;100563.47;;;14.66;89.48
64844;BME280;51310;52.198;5.422;2023-08-06T10:28:11;100575.47;;;14.62;89.44
64844;BME280;51310;52.198;5.422;2023-08-06T10:30:45;100572.16;;;14.58;89.47
64844;BME280;51310;52.198;5.422;2023-08-06T10:33:13;100572.78;;;14.62;89.45
64844;BME280;51310;52.198;5.422;2023-08-06T10:35:45;100567.50;;;14.61;89.65
64844;BME280;51310;52.198;5.422;2023-08-06T10:38:47;100564.81;;;14.61;89.54
64844;BME280;51310;52.198;5.422;2023-08-06T10:41:29;100567.13;;;14.54;89.66
64844;BME280;51310;52.198;5.422;2023-08-06T10:44:11;100571.34;;;14.47;89.61
64844;BME280;51310;52.198;5.422;2023-08-06T10:46:37;100570.16;;;14.40;89.81
64844;BME280;51310;52.198;5.422;2023-08-06T10:49:04;100582.34;;;14.44;89.74
64844;BME280;51310;52.198;5.422;2023-08-06T10:51:32;100575.03;;;14.46;89.61
64844;BME280;51310;52.198;5.422;2023-08-06T10:53:59;100561.97;;;14.41;89.65
64844;BME280;51310;52.198;5.422;2023-08-06T10:56:25;100573.19;;;14.46;89.69
64844;BME280;51310;52.198;5.422;2023-08-06T10:58:55;100563.91;;;14.39;89.82
64844;BME280;51310;52.198;5.422;2023-08-06T11:01:23;100548.91;;;14.36;89.78
64844;BME280;51310;52.198;5.422;2023-08-06T11:03:50;100581.59;;;14.53;89.78
64844;BME280;51310;52.198;5.422;2023-08-06T11:06:19;100563.38;;;14.45;89.90
64844;BME280;51310;52.198;5.422;2023-08-06T11:08:54;100586.72;;;14.56;89.78
64844;BME280;51310;52.198;5.422;2023-08-06T11:11:22;100597.59;;;14.54;89.79
64844;BME280;51310;52.198;5.422;2023-08-06T11:13:51;100576.97;;;14.44;89.84
64844;BME280;51310;52.198;5.422;2023-08-06T11:16:20;100581.63;;;14.42;89.86
64844;BME280;51310;52.198;5.422;2023-08-06T11:18:49;100615.69;;;14.52;90.03
64844;BME280;51310;52.198;5.422;2023-08-06T11:21:19;100609.97;;;14.46;89.92
64844;BME280;51310;52.198;5.422;2023-08-06T11:23:46;100609.09;;;14.45;89.82
64844;BME280;51310;52.198;5.422;2023-08-06T11:26:12;100610.69;;;14.48;89.89
64844;BME280;51310;52.198;5.422;2023-08-06T11:28:38;100617.88;;;14.47;89.81
64844;BME280;51310;52.198;5.422;2023-08-06T11:31:05;100618.53;;;14.40;89.92
64844;BME280;51310;52.198;5.422;2023-08-06T11:33:31;100601.72;;;14.26;89.69
64844;BME280;51310;52.198;5.422;2023-08-06T11:35:59;100615.03;;;14.28;89.92
64844;BME280;51310;52.198;5.422;2023-08-06T11:38:28;100609.31;;;14.21;89.89
64844;BME280;51310;52.198;5.422;2023-08-06T11:40:54;100627.09;;;14.33;90.04
64844;BME280;51310;52.198;5.422;2023-08-06T11:43:21;100607.34;;;14.23;89.82
64844;BME280;51310;52.198;5.422;2023-08-06T11:45:49;100607.84;;;14.17;89.93
64844;BME280;51310;52.198;5.422;2023-08-06T11:48:16;100627.38;;;14.30;89.90
64844;BME280;51310;52.198;5.422;2023-08-06T11:50:43;100609.31;;;14.21;89.91
64844;BME280;51310;52.198;5.422;2023-08-06T11:53:13;100617.75;;;14.16;89.74
64844;BME280;51310;52.198;5.422;2023-08-06T11:55:40;100622.00;;;14.19;89.97
64844;BME280;51310;52.198;5.422;2023-08-06T11:58:07;100613.47;;;14.14;89.89
64844;BME280;51310;52.198;5.422;2023-08-06T12:00:33;100606.63;;;14.10;89.80
64844;BME280;51310;52.198;5.422;2023-08-06T12:02:59;100626.28;;;14.22;89.83
64844;BME280;51310;52.198;5.422;2023-08-06T12:05:32;100619.91;;;14.23;89.91
64844;BME280;51310;52.198;5.422;2023-08-06T12:08:03;100625.63;;;14.29;89.83
64844;BME280;51310;52.198;5.422;2023-08-06T12:10:32;100602.34;;;14.19;89.89
64844;BME280;51310;52.198;5.422;2023-08-06T12:12:58;100622.84;;;14.31;89.81
64844;BME280;51310;52.198;5.422;2023-08-06T12:15:24;100604.50;;;14.25;89.90
64844;BME280;51310;52.198;5.422;2023-08-06T12:17:51;100614.66;;;14.32;89.98
64844;BME280;51310;52.198;5.422;2023-08-06T12:20:17;100606.59;;;14.32;89.90
64844;BME280;51310;52.198;5.422;2023-08-06T12:22:43;100620.00;;;14.44;89.96
64844;BME280;51310;52.198;5.422;2023-08-06T12:25:11;100640.63;;;14.54;89.93
64844;BME280;51310;52.198;5.422;2023-08-06T12:27:39;100637.69;;;14.57;89.91
64844;BME280;51310;52.198;5.422;2023-08-06T12:30:08;100648.81;;;14.64;89.89
64844;BME280;51310;52.198;5.422;2023-08-06T12:32:35;100649.16;;;14.71;89.99
64844;BME280;51310;52.198;5.422;2023-08-06T12:35:01;100654.53;;;14.71;89.92
64844;BME280;51310;52.198;5.422;2023-08-06T12:37:28;100653.91;;;14.67;89.90
64844;BME280;51310;52.198;5.422;2023-08-06T12:39:54;100632.31;;;14.57;89.69
64844;BME280;51310;52.198;5.422;2023-08-06T12:42:20;100659.28;;;14.67;89.81
64844;BME280;51310;52.198;5.422;2023-08-06T12:44:48;100657.84;;;14.63;89.75
64844;BME280;51310;52.198;5.422;2023-08-06T12:47:16;100668.69;;;14.73;89.79
64844;BME280;51310;52.198;5.422;2023-08-06T12:49:43;100667.81;;;14.72;89.71
64844;BME280;51310;52.198;5.422;2023-08-06T12:52:09;100669.28;;;14.76;89.68
64844;BME280;51310;52.198;5.422;2023-08-06T12:54:38;100683.47;;;14.78;89.81
64844;BME280;51310;52.198;5.422;2023-08-06T12:57:04;100668.59;;;14.63;89.76
64844;BME280;51310;52.198;5.422;2023-08-06T12:59:31;100668.00;;;14.60;89.91